Cass, WV (24927)

3:41 PM EDT on August 30, 2015 (GMT -0400)
Green Bank Observatory, near 140ft telescope | | Change Station
CLOSE
Current Station
Personal Weather Station
Location: Green Bank, WV
Elevation: 2688 ft
Nearby Weather Stations

Elev 2688 ft 38.44 °N, 79.83 °W | Updated 52 seconds ago

Partly Cloudy
Partly Cloudy
78.7 °F
Feels Like 80 °F
N
5.0
Wind Variable Wind from SSW
Gusts 7.8 mph

Today
High -- | Low -- °F
--% Chance of Precip.
Yesterday
High -- | Low -- °F
Precip. -- in
6:47 AM 7:52 PM
Full, 98% visible
Pressure 30.27 in
Visibility 10.0 miles
Clouds Clear
Heat Index 80 °F
Dew Point 58 °F
Humidity 48%
Rainfall 0.00 in
Snow Depth Not available.
UV 8 out of 12
Pollen 9.40 out of 12
Air Quality Not available.
Flu Activity Not available.
METAR KHSP 301910Z AUTO 11003KT 10SM CLR 22/16 A3027 RMK AO2 T02200164
Pressure 30.27 in
Visibility 10.0 miles
Clouds Clear
Heat Index 80 °F
Dew Point 58 °F
Humidity 48%
Rainfall 0.00 in
Snow Depth Not available.
UV 8 out of 12
Pollen 9.40 out of 12
Air Quality Not available.
Flu Activity Not available.
METAR KHSP 301910Z AUTO 11003KT 10SM CLR 22/16 A3027 RMK AO2 T02200164

10-Day Weather Forecast

×

Almanac

Astronomy

Aug. 30, 2015 Rise Set
Actual Time
Civil Twilight
Nautical Twilight
Astronomical Twilight
Moon
Length of Visible Light
Length of Day
Tomorrow will be .
, % of the Moon is Illuminated

Today's Extremes

State Highs State Lows

Community

WunderPhotos

Upload Photos

1,851,041 photos uploaded!

WunderBlogs® & News

Nearby

Air Quality

  Air Quality AQ Index Pollutant
Not available.

Snow Depth

Station Depth Elevation

Earthquake Activity

City Distance Mag. Time & Date
Minimum magnitude displayed is 2.5.

Coastal Water Temperatures

Place Temperature

Stations

Nearby Weather Stations

Station Location Temp. Windchill Dew Point Humidity Wind Precip. Elev Updated Type